sensor_id;sensor_type;location;lat;lon;timestamp;pressure;altitude;pressure_sealevel;temperature;humidity
43153;BME280;28756;49.064;9.290;2022-07-10T00:00:43;99683.56;;;15.53;91.22
43153;BME280;28756;49.064;9.290;2022-07-10T00:03:09;99689.00;;;15.50;91.20
43153;BME280;28756;49.064;9.290;2022-07-10T00:05:35;99687.31;;;15.49;91.23
43153;BME280;28756;49.064;9.290;2022-07-10T00:08:02;99677.88;;;15.46;91.96
43153;BME280;28756;49.064;9.290;2022-07-10T00:10:28;99679.69;;;15.46;91.77
43153;BME280;28756;49.064;9.290;2022-07-10T00:12:55;99686.91;;;15.42;91.71
43153;BME280;28756;49.064;9.290;2022-07-10T00:15:21;99686.25;;;15.39;91.87
43153;BME280;28756;49.064;9.290;2022-07-10T00:17:47;99686.56;;;15.34;91.50
43153;BME280;28756;49.064;9.290;2022-07-10T00:20:14;99687.91;;;15.27;91.57
43153;BME280;28756;49.064;9.290;2022-07-10T00:22:41;99690.69;;;15.24;91.59
43153;BME280;28756;49.064;9.290;2022-07-10T00:25:10;99691.47;;;15.11;92.49
43153;BME280;28756;49.064;9.290;2022-07-10T00:27:36;99685.41;;;15.11;92.40
43153;BME280;28756;49.064;9.290;2022-07-10T00:30:02;99684.75;;;15.07;92.46
43153;BME280;28756;49.064;9.290;2022-07-10T00:32:28;99687.66;;;15.03;92.25
43153;BME280;28756;49.064;9.290;2022-07-10T00:34:54;99674.97;;;14.96;92.23
43153;BME280;28756;49.064;9.290;2022-07-10T00:37:20;99682.19;;;14.93;92.72
43153;BME280;28756;49.064;9.290;2022-07-10T00:39:48;99685.09;;;14.88;92.99
43153;BME280;28756;49.064;9.290;2022-07-10T00:42:15;99679.09;;;14.86;93.13
43153;BME280;28756;49.064;9.290;2022-07-10T00:44:42;99673.97;;;14.84;93.76
43153;BME280;28756;49.064;9.290;2022-07-10T00:47:09;99677.81;;;14.79;94.79
43153;BME280;28756;49.064;9.290;2022-07-10T00:49:37;99678.03;;;14.76;94.86
43153;BME280;28756;49.064;9.290;2022-07-10T00:52:12;99681.00;;;14.69;94.78
43153;BME280;28756;49.064;9.290;2022-07-10T00:54:40;99679.88;;;14.59;95.33
43153;BME280;28756;49.064;9.290;2022-07-10T00:57:07;99681.91;;;14.54;95.85
43153;BME280;28756;49.064;9.290;2022-07-10T00:59:35;99674.34;;;14.49;96.17
43153;BME280;28756;49.064;9.290;2022-07-10T01:02:03;99680.72;;;14.45;95.88
43153;BME280;28756;49.064;9.290;2022-07-10T01:04:29;99670.53;;;14.41;95.64
43153;BME280;28756;49.064;9.290;2022-07-10T01:06:55;99674.34;;;14.35;95.96
43153;BME280;28756;49.064;9.290;2022-07-10T01:09:21;99669.50;;;14.29;95.98
43153;BME280;28756;49.064;9.290;2022-07-10T01:11:47;99671.34;;;14.27;96.09
43153;BME280;28756;49.064;9.290;2022-07-10T01:14:13;99681.44;;;14.18;95.93
43153;BME280;28756;49.064;9.290;2022-07-10T01:16:40;99668.47;;;14.17;96.07
43153;BME280;28756;49.064;9.290;2022-07-10T01:19:06;99667.81;;;14.13;96.20
43153;BME280;28756;49.064;9.290;2022-07-10T01:21:35;99666.13;;;14.12;96.42
43153;BME280;28756;49.064;9.290;2022-07-10T01:24:06;99667.97;;;14.10;96.53
43153;BME280;28756;49.064;9.290;2022-07-10T01:26:33;99659.97;;;14.13;96.63
43153;BME280;28756;49.064;9.290;2022-07-10T01:29:04;99662.75;;;14.10;96.16
43153;BME280;28756;49.064;9.290;2022-07-10T01:31:32;99662.84;;;14.09;96.15
43153;BME280;28756;49.064;9.290;2022-07-10T01:34:00;99663.78;;;14.08;96.27
43153;BME280;28756;49.064;9.290;2022-07-10T01:36:28;99664.97;;;14.02;95.84
43153;BME280;28756;49.064;9.290;2022-07-10T01:38:58;99666.22;;;13.96;96.00
43153;BME280;28756;49.064;9.290;2022-07-10T01:41:25;99666.75;;;13.87;96.68
43153;BME280;28756;49.064;9.290;2022-07-10T01:43:51;99678.41;;;13.81;97.26
43153;BME280;28756;49.064;9.290;2022-07-10T01:46:18;99691.47;;;13.81;97.83
43153;BME280;28756;49.064;9.290;2022-07-10T01:48:44;99688.31;;;13.76;97.58
43153;BME280;28756;49.064;9.290;2022-07-10T01:51:11;99685.69;;;13.76;97.84
43153;BME280;28756;49.064;9.290;2022-07-10T01:53:38;99685.75;;;13.74;97.74
43153;BME280;28756;49.064;9.290;2022-07-10T01:56:07;99683.06;;;13.76;97.80
43153;BME280;28756;49.064;9.290;2022-07-10T01:58:34;99696.97;;;13.77;97.42
43153;BME280;28756;49.064;9.290;2022-07-10T02:01:01;99687.44;;;13.76;97.71
43153;BME280;28756;49.064;9.290;2022-07-10T02:03:27;99688.38;;;13.74;97.67
43153;BME280;28756;49.064;9.290;2022-07-10T02:06:11;99688.56;;;13.71;98.11
43153;BME280;28756;49.064;9.290;2022-07-10T02:08:38;99683.59;;;13.67;97.87
43153;BME280;28756;49.064;9.290;2022-07-10T02:11:04;99693.13;;;13.68;97.91
43153;BME280;28756;49.064;9.290;2022-07-10T02:13:30;99693.97;;;13.68;97.72
43153;BME280;28756;49.064;9.290;2022-07-10T02:15:57;99686.63;;;13.75;97.90
43153;BME280;28756;49.064;9.290;2022-07-10T02:18:23;99683.13;;;13.74;97.74
43153;BME280;28756;49.064;9.290;2022-07-10T02:20:51;99684.81;;;13.76;97.21
43153;BME280;28756;49.064;9.290;2022-07-10T02:23:17;99683.91;;;13.77;97.37
43153;BME280;28756;49.064;9.290;2022-07-10T02:25:43;99696.03;;;13.78;97.45
43153;BME280;28756;49.064;9.290;2022-07-10T02:28:09;99693.44;;;13.78;97.02
43153;BME280;28756;49.064;9.290;2022-07-10T02:30:35;99701.28;;;13.78;97.26
43153;BME280;28756;49.064;9.290;2022-07-10T02:33:01;99699.75;;;13.73;96.55
43153;BME280;28756;49.064;9.290;2022-07-10T02:35:27;99705.75;;;13.76;96.24
43153;BME280;28756;49.064;9.290;2022-07-10T02:37:53;99699.75;;;13.73;96.04
43153;BME280;28756;49.064;9.290;2022-07-10T02:40:19;99697.34;;;13.70;95.40
43153;BME280;28756;49.064;9.290;2022-07-10T02:42:45;99706.84;;;13.71;95.30
43153;BME280;28756;49.064;9.290;2022-07-10T02:45:10;99701.69;;;13.70;94.96
43153;BME280;28756;49.064;9.290;2022-07-10T02:47:36;99705.16;;;13.70;94.70
43153;BME280;28756;49.064;9.290;2022-07-10T02:50:03;99704.50;;;13.67;94.54
43153;BME280;28756;49.064;9.290;2022-07-10T02:52:28;99701.22;;;13.63;94.65
43153;BME280;28756;49.064;9.290;2022-07-10T02:54:57;99708.31;;;13.61;94.59
43153;BME280;28756;49.064;9.290;2022-07-10T02:57:23;99702.69;;;13.53;94.54
43153;BME280;28756;49.064;9.290;2022-07-10T02:59:49;99714.97;;;13.51;94.59
43153;BME280;28756;49.064;9.290;2022-07-10T03:02:15;99713.06;;;13.38;94.62
43153;BME280;28756;49.064;9.290;2022-07-10T03:04:40;99721.81;;;13.37;94.77
43153;BME280;28756;49.064;9.290;2022-07-10T03:07:06;99717.69;;;13.33;94.89
43153;BME280;28756;49.064;9.290;2022-07-10T03:09:32;99713.47;;;13.31;94.87
43153;BME280;28756;49.064;9.290;2022-07-10T03:11:58;99717.75;;;13.32;94.84
43153;BME280;28756;49.064;9.290;2022-07-10T03:14:23;99715.59;;;13.24;94.62
43153;BME280;28756;49.064;9.290;2022-07-10T03:16:49;99717.69;;;13.17;94.95
43153;BME280;28756;49.064;9.290;2022-07-10T03:19:15;99714.25;;;13.17;95.13
43153;BME280;28756;49.064;9.290;2022-07-10T03:21:41;99717.84;;;13.14;94.96
43153;BME280;28756;49.064;9.290;2022-07-10T03:24:06;99713.88;;;13.07;95.01
43153;BME280;28756;49.064;9.290;2022-07-10T03:26:32;99721.28;;;12.99;95.24
43153;BME280;28756;49.064;9.290;2022-07-10T03:28:58;99716.25;;;12.95;95.41
43153;BME280;28756;49.064;9.290;2022-07-10T03:31:24;99721.47;;;12.95;95.80
43153;BME280;28756;49.064;9.290;2022-07-10T03:33:50;99721.38;;;12.97;95.87
43153;BME280;28756;49.064;9.290;2022-07-10T03:36:18;99728.44;;;12.95;95.75
43153;BME280;28756;49.064;9.290;2022-07-10T03:38:44;99725.84;;;12.95;95.83
43153;BME280;28756;49.064;9.290;2022-07-10T03:41:13;99731.06;;;12.95;95.71
43153;BME280;28756;49.064;9.290;2022-07-10T03:43:38;99727.47;;;12.98;95.99
43153;BME280;28756;49.064;9.290;2022-07-10T03:46:04;99729.13;;;12.99;95.90
43153;BME280;28756;49.064;9.290;2022-07-10T03:48:30;99727.28;;;13.01;95.89
43153;BME280;28756;49.064;9.290;2022-07-10T03:50:56;99720.91;;;13.06;95.92
43153;BME280;28756;49.064;9.290;2022-07-10T03:53:21;99730.50;;;13.06;95.59
43153;BME280;28756;49.064;9.290;2022-07-10T03:55:47;99724.19;;;13.10;95.74
43153;BME280;28756;49.064;9.290;2022-07-10T03:58:13;99730.06;;;13.14;95.65
43153;BME280;28756;49.064;9.290;2022-07-10T04:00:39;99734.28;;;13.16;95.56
43153;BME280;28756;49.064;9.290;2022-07-10T04:03:07;99729.91;;;13.17;95.34
43153;BME280;28756;49.064;9.290;2022-07-10T04:05:34;99723.78;;;13.18;95.34
43153;BME280;28756;49.064;9.290;2022-07-10T04:08:01;99721.84;;;13.21;95.00
43153;BME280;28756;49.064;9.290;2022-07-10T04:10:29;99729.47;;;13.24;95.48
43153;BME280;28756;49.064;9.290;2022-07-10T04:12:55;99722.56;;;13.23;95.23
43153;BME280;28756;49.064;9.290;2022-07-10T04:15:22;99737.91;;;13.30;95.40
43153;BME280;28756;49.064;9.290;2022-07-10T04:17:49;99733.63;;;13.29;95.08
43153;BME280;28756;49.064;9.290;2022-07-10T04:20:16;99733.63;;;13.29;95.46
43153;BME280;28756;49.064;9.290;2022-07-10T04:22:42;99729.91;;;13.33;95.41
43153;BME280;28756;49.064;9.290;2022-07-10T04:25:09;99727.94;;;13.36;95.49
43153;BME280;28756;49.064;9.290;2022-07-10T04:27:35;99725.34;;;13.36;95.19
43153;BME280;28756;49.064;9.290;2022-07-10T04:30:02;99726.25;;;13.35;95.84
43153;BME280;28756;49.064;9.290;2022-07-10T04:32:28;99733.19;;;13.36;95.74
43153;BME280;28756;49.064;9.290;2022-07-10T04:34:57;99738.84;;;13.29;95.78
43153;BME280;28756;49.064;9.290;2022-07-10T04:37:22;99742.19;;;13.31;96.09
43153;BME280;28756;49.064;9.290;2022-07-10T04:39:48;99741.34;;;13.30;95.79
43153;BME280;28756;49.064;9.290;2022-07-10T04:42:14;99733.53;;;13.30;96.10
43153;BME280;28756;49.064;9.290;2022-07-10T04:44:40;99725.53;;;13.33;95.60
43153;BME280;28756;49.064;9.290;2022-07-10T04:47:06;99726.91;;;13.40;95.61
43153;BME280;28756;49.064;9.290;2022-07-10T04:49:32;99725.88;;;13.43;95.75
43153;BME280;28756;49.064;9.290;2022-07-10T04:51:59;99723.75;;;13.50;94.75
43153;BME280;28756;49.064;9.290;2022-07-10T04:54:25;99721.94;;;13.66;94.32
43153;BME280;28756;49.064;9.290;2022-07-10T04:56:51;99718.91;;;14.04;92.53
43153;BME280;28756;49.064;9.290;2022-07-10T04:59:17;99717.13;;;14.34;91.04
43153;BME280;28756;49.064;9.290;2022-07-10T05:01:43;99718.41;;;14.72;89.09
43153;BME280;28756;49.064;9.290;2022-07-10T05:04:09;99717.63;;;14.98;87.77
43153;BME280;28756;49.064;9.290;2022-07-10T05:06:35;99713.13;;;15.28;85.45
43153;BME280;28756;49.064;9.290;2022-07-10T05:09:02;99710.72;;;15.52;83.16
43153;BME280;28756;49.064;9.290;2022-07-10T05:11:28;99716.06;;;15.51;79.90
43153;BME280;28756;49.064;9.290;2022-07-10T05:13:54;99716.19;;;15.62;79.94
43153;BME280;28756;49.064;9.290;2022-07-10T05:16:19;99710.06;;;15.76;77.84
43153;BME280;28756;49.064;9.290;2022-07-10T05:18:45;99711.47;;;16.07;77.00
43153;BME280;28756;49.064;9.290;2022-07-10T05:21:11;99710.34;;;16.24;76.95
43153;BME280;28756;49.064;9.290;2022-07-10T05:23:38;99713.69;;;16.39;76.27
43153;BME280;28756;49.064;9.290;2022-07-10T05:26:05;99716.00;;;16.31;74.43
43153;BME280;28756;49.064;9.290;2022-07-10T05:28:31;99724.59;;;16.72;74.49
43153;BME280;28756;49.064;9.290;2022-07-10T05:30:57;99720.63;;;16.40;75.99
43153;BME280;28756;49.064;9.290;2022-07-10T05:33:24;99737.97;;;15.77;75.55
43153;BME280;28756;49.064;9.290;2022-07-10T05:35:52;99739.72;;;15.76;78.21
43153;BME280;28756;49.064;9.290;2022-07-10T05:38:17;99741.28;;;15.66;78.44
43153;BME280;28756;49.064;9.290;2022-07-10T05:40:43;99754.59;;;15.36;79.08
43153;BME280;28756;49.064;9.290;2022-07-10T05:43:09;99756.22;;;15.09;78.69
43153;BME280;28756;49.064;9.290;2022-07-10T05:45:35;99752.91;;;14.78;78.58
43153;BME280;28756;49.064;9.290;2022-07-10T05:48:01;99752.69;;;14.81;79.95
43153;BME280;28756;49.064;9.290;2022-07-10T05:50:27;99760.94;;;14.75;77.85
43153;BME280;28756;49.064;9.290;2022-07-10T05:52:52;99759.53;;;14.98;77.90
43153;BME280;28756;49.064;9.290;2022-07-10T05:55:18;99756.44;;;14.92;77.61
43153;BME280;28756;49.064;9.290;2022-07-10T05:57:44;99762.03;;;15.00;76.76
43153;BME280;28756;49.064;9.290;2022-07-10T06:00:10;99750.97;;;15.51;75.06
43153;BME280;28756;49.064;9.290;2022-07-10T06:02:36;99754.19;;;15.69;73.86
43153;BME280;28756;49.064;9.290;2022-07-10T06:05:01;99755.03;;;16.10;71.75
43153;BME280;28756;49.064;9.290;2022-07-10T06:07:27;99758.47;;;15.98;70.91
43153;BME280;28756;49.064;9.290;2022-07-10T06:09:54;99749.31;;;16.56;69.65
43153;BME280;28756;49.064;9.290;2022-07-10T06:12:20;99755.81;;;16.38;69.81
43153;BME280;28756;49.064;9.290;2022-07-10T06:14:46;99758.50;;;16.10;69.82
43153;BME280;28756;49.064;9.290;2022-07-10T06:17:11;99763.63;;;15.72;70.83
43153;BME280;28756;49.064;9.290;2022-07-10T06:19:37;99767.81;;;15.47;70.77
43153;BME280;28756;49.064;9.290;2022-07-10T06:22:03;99764.75;;;15.13;71.84
43153;BME280;28756;49.064;9.290;2022-07-10T06:24:48;99760.94;;;15.31;71.90
43153;BME280;28756;49.064;9.290;2022-07-10T06:27:13;99767.97;;;15.31;70.71
43153;BME280;28756;49.064;9.290;2022-07-10T06:29:40;99774.31;;;15.41;71.47
43153;BME280;28756;49.064;9.290;2022-07-10T06:32:06;99768.22;;;15.41;68.61
43153;BME280;28756;49.064;9.290;2022-07-10T06:34:32;99770.06;;;15.11;69.34
43153;BME280;28756;49.064;9.290;2022-07-10T06:36:58;99767.03;;;14.90;71.10
43153;BME280;28756;49.064;9.290;2022-07-10T06:39:24;99777.28;;;14.93;71.12
43153;BME280;28756;49.064;9.290;2022-07-10T06:41:49;99768.34;;;14.83;69.85
43153;BME280;28756;49.064;9.290;2022-07-10T06:44:18;99768.91;;;15.30;70.40
43153;BME280;28756;49.064;9.290;2022-07-10T06:46:43;99774.00;;;15.19;67.19
43153;BME280;28756;49.064;9.290;2022-07-10T06:49:29;99775.09;;;15.29;67.71
43153;BME280;28756;49.064;9.290;2022-07-10T06:51:55;99767.91;;;15.18;68.17
43153;BME280;28756;49.064;9.290;2022-07-10T06:54:21;99777.16;;;15.24;69.63
43153;BME280;28756;49.064;9.290;2022-07-10T06:56:46;99777.06;;;15.25;67.11
43153;BME280;28756;49.064;9.290;2022-07-10T06:59:12;99779.53;;;15.14;68.83
43153;BME280;28756;49.064;9.290;2022-07-10T07:01:38;99784.69;;;14.87;69.41
43153;BME280;28756;49.064;9.290;2022-07-10T07:04:04;99790.09;;;14.83;69.81
43153;BME280;28756;49.064;9.290;2022-07-10T07:06:30;99796.94;;;14.86;70.09
43153;BME280;28756;49.064;9.290;2022-07-10T07:08:55;99787.69;;;14.95;69.96
43153;BME280;28756;49.064;9.290;2022-07-10T07:11:46;99791.84;;;15.26;70.70
43153;BME280;28756;49.064;9.290;2022-07-10T07:14:34;99777.13;;;15.38;69.35
43153;BME280;28756;49.064;9.290;2022-07-10T07:17:17;99782.66;;;15.61;67.54
43153;BME280;28756;49.064;9.290;2022-07-10T07:20:05;99778.19;;;15.63;66.98
43153;BME280;28756;49.064;9.290;2022-07-10T07:23:00;99777.34;;;15.62;65.98
43153;BME280;28756;49.064;9.290;2022-07-10T07:25:43;99774.72;;;15.62;66.60
43153;BME280;28756;49.064;9.290;2022-07-10T07:28:22;99780.97;;;15.32;66.31
43153;BME280;28756;49.064;9.290;2022-07-10T07:30:48;99780.88;;;15.34;66.18
43153;BME280;28756;49.064;9.290;2022-07-10T07:33:29;99768.78;;;15.46;65.11
43153;BME280;28756;49.064;9.290;2022-07-10T07:36:14;99780.16;;;15.59;66.09
43153;BME280;28756;49.064;9.290;2022-07-10T07:38:47;99774.28;;;15.83;63.08
43153;BME280;28756;49.064;9.290;2022-07-10T07:41:24;99780.75;;;15.50;63.07
43153;BME280;28756;49.064;9.290;2022-07-10T07:44:02;99783.53;;;15.47;63.31
43153;BME280;28756;49.064;9.290;2022-07-10T07:46:33;99780.75;;;15.50;64.19
43153;BME280;28756;49.064;9.290;2022-07-10T07:49:22;99781.09;;;15.58;63.75
43153;BME280;28756;49.064;9.290;2022-07-10T07:52:21;99779.50;;;16.88;59.00
43153;BME280;28756;49.064;9.290;2022-07-10T07:55:11;99774.91;;;17.29;56.72
43153;BME280;28756;49.064;9.290;2022-07-10T07:58:14;99782.88;;;16.51;60.54
43153;BME280;28756;49.064;9.290;2022-07-10T08:00:58;99785.31;;;15.88;57.81
43153;BME280;28756;49.064;9.290;2022-07-10T08:03:29;99782.53;;;15.77;60.30
43153;BME280;28756;49.064;9.290;2022-07-10T08:06:03;99782.63;;;16.03;60.88
43153;BME280;28756;49.064;9.290;2022-07-10T08:08:59;99783.59;;;15.74;60.34
43153;BME280;28756;49.064;9.290;2022-07-10T08:11:56;99784.25;;;15.91;62.57
43153;BME280;28756;49.064;9.290;2022-07-10T08:14:41;99778.00;;;15.79;61.44
43153;BME280;28756;49.064;9.290;2022-07-10T08:17:54;99777.28;;;15.77;60.91
43153;BME280;28756;49.064;9.290;2022-07-10T08:20:33;99779.41;;;15.57;59.98
43153;BME280;28756;49.064;9.290;2022-07-10T08:23:01;99775.38;;;15.79;60.66
43153;BME280;28756;49.064;9.290;2022-07-10T08:25:56;99768.69;;;16.15;59.16
43153;BME280;28756;49.064;9.290;2022-07-10T08:28:40;99759.47;;;16.61;61.22
43153;BME280;28756;49.064;9.290;2022-07-10T08:31:15;99756.75;;;16.50;57.87
43153;BME280;28756;49.064;9.290;2022-07-10T08:33:55;99757.34;;;16.02;59.14
43153;BME280;28756;49.064;9.290;2022-07-10T08:36:24;99762.25;;;16.06;59.14
43153;BME280;28756;49.064;9.290;2022-07-10T08:44:22;99760.31;;;16.36;59.24
43153;BME280;28756;49.064;9.290;2022-07-10T08:47:13;99766.16;;;16.26;59.51
43153;BME280;28756;49.064;9.290;2022-07-10T08:50:00;99764.19;;;16.30;60.56
43153;BME280;28756;49.064;9.290;2022-07-10T08:52:44;99763.38;;;16.55;60.01
43153;BME280;28756;49.064;9.290;2022-07-10T08:55:38;99767.03;;;16.40;58.51
43153;BME280;28756;49.064;9.290;2022-07-10T08:58:50;99760.50;;;16.71;57.75
43153;BME280;28756;49.064;9.290;2022-07-10T09:01:25;99765.53;;;16.87;57.82
43153;BME280;28756;49.064;9.290;2022-07-10T09:04:15;99748.97;;;17.97;57.65
43153;BME280;28756;49.064;9.290;2022-07-10T09:06:58;99758.56;;;17.49;53.95
43153;BME280;28756;49.064;9.290;2022-07-10T09:10:20;99745.66;;;17.82;52.24
43153;BME280;28756;49.064;9.290;2022-07-10T09:13:13;99739.94;;;18.12;51.10
43153;BME280;28756;49.064;9.290;2022-07-10T09:15:47;99761.34;;;17.35;52.54
43153;BME280;28756;49.064;9.290;2022-07-10T09:19:14;99753.84;;;16.92;54.49
43153;BME280;28756;49.064;9.290;2022-07-10T09:24:47;99763.66;;;16.77;56.13
43153;BME280;28756;49.064;9.290;2022-07-10T09:27:51;99764.28;;;16.93;55.71
43153;BME280;28756;49.064;9.290;2022-07-10T09:33:56;99767.66;;;16.95;54.15
43153;BME280;28756;49.064;9.290;2022-07-10T09:36:40;99774.72;;;17.32;54.61
43153;BME280;28756;49.064;9.290;2022-07-10T09:39:16;99768.44;;;17.70;53.54
43153;BME280;28756;49.064;9.290;2022-07-10T09:42:04;99774.94;;;17.77;55.28
43153;BME280;28756;49.064;9.290;2022-07-10T09:44:45;99779.69;;;17.96;53.11
43153;BME280;28756;49.064;9.290;2022-07-10T09:47:29;99789.66;;;17.56;52.16
43153;BME280;28756;49.064;9.290;2022-07-10T09:50:08;99790.31;;;17.22;52.70
43153;BME280;28756;49.064;9.290;2022-07-10T09:53:07;99787.94;;;17.43;52.32
43153;BME280;28756;49.064;9.290;2022-07-10T09:55:52;99777.63;;;16.77;52.82
43153;BME280;28756;49.064;9.290;2022-07-10T09:58:26;99782.88;;;16.77;53.60
43153;BME280;28756;49.064;9.290;2022-07-10T10:01:14;99777.72;;;16.88;56.61
43153;BME280;28756;49.064;9.290;2022-07-10T10:03:43;99769.97;;;17.61;55.88
43153;BME280;28756;49.064;9.290;2022-07-10T10:06:14;99762.41;;;17.57;52.99
43153;BME280;28756;49.064;9.290;2022-07-10T10:09:03;99765.63;;;17.84;51.07
43153;BME280;28756;49.064;9.290;2022-07-10T10:11:33;99754.91;;;18.23;53.62
43153;BME280;28756;49.064;9.290;2022-07-10T10:14:01;99759.38;;;17.98;52.63
43153;BME280;28756;49.064;9.290;2022-07-10T10:16:29;99746.78;;;18.60;51.79
43153;BME280;28756;49.064;9.290;2022-07-10T10:18:56;99752.56;;;19.11;48.50
43153;BME280;28756;49.064;9.290;2022-07-10T10:21:40;99752.28;;;19.14;50.07
43153;BME280;28756;49.064;9.290;2022-07-10T10:24:06;99744.19;;;18.94;52.16
43153;BME280;28756;49.064;9.290;2022-07-10T10:26:32;99745.09;;;19.28;48.58
43153;BME280;28756;49.064;9.290;2022-07-10T10:29:01;99738.97;;;18.13;52.95
43153;BME280;28756;49.064;9.290;2022-07-10T10:31:29;99729.28;;;19.60;49.08
43153;BME280;28756;49.064;9.290;2022-07-10T10:33:57;99735.09;;;19.75;51.18
43153;BME280;28756;49.064;9.290;2022-07-10T10:39:20;99739.41;;;18.66;48.00
43153;BME280;28756;49.064;9.290;2022-07-10T10:41:53;99746.31;;;18.44;49.02
43153;BME280;28756;49.064;9.290;2022-07-10T10:44:21;99735.44;;;20.45;48.64
43153;BME280;28756;49.064;9.290;2022-07-10T10:49:24;99741.66;;;18.70;49.09
43153;BME280;28756;49.064;9.290;2022-07-10T10:52:08;99739.00;;;19.16;49.80
43153;BME280;28756;49.064;9.290;2022-07-10T10:57:23;99748.94;;;17.61;52.30
43153;BME280;28756;49.064;9.290;2022-07-10T11:00:32;99757.03;;;17.34;53.50
43153;BME280;28756;49.064;9.290;2022-07-10T11:03:14;99759.59;;;17.71;51.83
43153;BME280;28756;49.064;9.290;2022-07-10T11:05:42;99746.56;;;18.86;51.47
43153;BME280;28756;49.064;9.290;2022-07-10T11:08:08;99741.41;;;18.85;48.85
43153;BME280;28756;49.064;9.290;2022-07-10T11:10:42;99746.44;;;18.88;51.08
43153;BME280;28756;49.064;9.290;2022-07-10T11:13:17;99750.03;;;17.94;48.86
43153;BME280;28756;49.064;9.290;2022-07-10T11:15:48;99742.50;;;18.48;50.35
43153;BME280;28756;49.064;9.290;2022-07-10T11:18:17;99743.28;;;17.90;49.06
43153;BME280;28756;49.064;9.290;2022-07-10T11:20:48;99747.22;;;18.09;52.67
43153;BME280;28756;49.064;9.290;2022-07-10T11:26:35;99741.25;;;18.29;48.54
43153;BME280;28756;49.064;9.290;2022-07-10T11:29:29;99731.78;;;18.15;50.81
43153;BME280;28756;49.064;9.290;2022-07-10T11:32:22;99733.59;;;18.15;50.37
43153;BME280;28756;49.064;9.290;2022-07-10T11:35:38;99729.16;;;18.15;52.39
43153;BME280;28756;49.064;9.290;2022-07-10T11:38:05;99741.47;;;18.15;49.63
43153;BME280;28756;49.064;9.290;2022-07-10T11:40:54;99737.63;;;17.72;51.89
43153;BME280;28756;49.064;9.290;2022-07-10T11:43:20;99731.47;;;19.00;50.08
43153;BME280;28756;49.064;9.290;2022-07-10T11:45:52;99734.84;;;19.46;46.74
43153;BME280;28756;49.064;9.290;2022-07-10T11:48:27;99721.69;;;20.20;47.61
43153;BME280;28756;49.064;9.290;2022-07-10T11:53:56;99719.81;;;19.90;47.42
43153;BME280;28756;49.064;9.290;2022-07-10T11:57:04;99732.66;;;18.84;47.30
43153;BME280;28756;49.064;9.290;2022-07-10T12:10:47;99726.56;;;18.84;48.78
43153;BME280;28756;49.064;9.290;2022-07-10T12:13:43;99728.22;;;18.28;47.56
43153;BME280;28756;49.064;9.290;2022-07-10T12:16:38;99727.00;;;18.09;48.18
43153;BME280;28756;49.064;9.290;2022-07-10T12:19:25;99735.44;;;18.83;47.93
43153;BME280;28756;49.064;9.290;2022-07-10T12:21:53;99720.09;;;18.88;48.15
43153;BME280;28756;49.064;9.290;2022-07-10T12:24:49;99729.81;;;19.75;45.19
43153;BME280;28756;49.064;9.290;2022-07-10T12:27:41;99725.06;;;19.69;45.74
43153;BME280;28756;49.064;9.290;2022-07-10T12:34:04;99723.66;;;19.53;46.33
43153;BME280;28756;49.064;9.290;2022-07-10T12:37:30;99724.03;;;18.37;47.99
43153;BME280;28756;49.064;9.290;2022-07-10T12:40:46;99735.81;;;17.97;49.05
43153;BME280;28756;49.064;9.290;2022-07-10T12:43:12;99724.66;;;18.52;48.40
43153;BME280;28756;49.064;9.290;2022-07-10T12:53:19;99725.09;;;19.14;45.59
43153;BME280;28756;49.064;9.290;2022-07-10T12:55:45;99717.34;;;18.78;46.59
43153;BME280;28756;49.064;9.290;2022-07-10T12:58:14;99730.09;;;18.03;47.01
43153;BME280;28756;49.064;9.290;2022-07-10T13:00:46;99726.91;;;18.11;49.52
43153;BME280;28756;49.064;9.290;2022-07-10T13:03:19;99738.09;;;17.77;48.75
43153;BME280;28756;49.064;9.290;2022-07-10T13:05:48;99724.41;;;18.55;49.67
43153;BME280;28756;49.064;9.290;2022-07-10T13:08:20;99728.34;;;18.60;47.72
43153;BME280;28756;49.064;9.290;2022-07-10T13:10:59;99725.13;;;17.87;47.48
43153;BME280;28756;49.064;9.290;2022-07-10T13:13:56;99729.66;;;18.32;48.37
43153;BME280;28756;49.064;9.290;2022-07-10T13:16:54;99719.94;;;19.23;46.03
43153;BME280;28756;49.064;9.290;2022-07-10T13:22:58;99714.25;;;18.61;47.55
43153;BME280;28756;49.064;9.290;2022-07-10T13:26:20;99714.38;;;18.94;48.07
43153;BME280;28756;49.064;9.290;2022-07-10T13:28:46;99725.69;;;19.17;44.11
43153;BME280;28756;49.064;9.290;2022-07-10T13:31:31;99698.41;;;19.72;44.58
43153;BME280;28756;49.064;9.290;2022-07-10T13:33:57;99707.19;;;19.72;44.09
43153;BME280;28756;49.064;9.290;2022-07-10T13:36:23;99714.66;;;20.10;45.59
43153;BME280;28756;49.064;9.290;2022-07-10T13:38:49;99714.47;;;20.01;43.90
43153;BME280;28756;49.064;9.290;2022-07-10T13:41:26;99703.34;;;20.50;42.89
43153;BME280;28756;49.064;9.290;2022-07-10T13:44:18;99711.69;;;20.55;42.06
43153;BME280;28756;49.064;9.290;2022-07-10T13:46:44;99710.22;;;20.41;43.87
43153;BME280;28756;49.064;9.290;2022-07-10T13:49:22;99706.63;;;20.42;41.96
43153;BME280;28756;49.064;9.290;2022-07-10T13:51:53;99716.94;;;19.82;42.78
43153;BME280;28756;49.064;9.290;2022-07-10T13:54:22;99711.66;;;19.93;41.84
43153;BME280;28756;49.064;9.290;2022-07-10T13:56:51;99712.66;;;19.48;42.88
43153;BME280;28756;49.064;9.290;2022-07-10T13:59:22;99716.75;;;18.63;43.55
43153;BME280;28756;49.064;9.290;2022-07-10T14:01:48;99708.72;;;18.99;43.54
43153;BME280;28756;49.064;9.290;2022-07-10T14:04:17;99702.56;;;19.86;46.14
43153;BME280;28756;49.064;9.290;2022-07-10T14:06:43;99709.41;;;19.56;43.17
43153;BME280;28756;49.064;9.290;2022-07-10T14:09:08;99706.13;;;19.31;45.25
43153;BME280;28756;49.064;9.290;2022-07-10T14:11:34;99704.25;;;19.10;43.58
43153;BME280;28756;49.064;9.290;2022-07-10T14:14:01;99705.69;;;19.47;45.90
43153;BME280;28756;49.064;9.290;2022-07-10T14:16:27;99698.31;;;19.95;46.46
43153;BME280;28756;49.064;9.290;2022-07-10T14:18:52;99697.16;;;20.09;44.36
43153;BME280;28756;49.064;9.290;2022-07-10T14:21:19;99693.78;;;20.07;41.92